Time;durP1;ratioP1;P1;durP2;ratioP2;P2;SDS_P1;SDS_P2;PMS_P1;PMS_P2;Temp;Humidity;BMP_temperature;BMP_pressure;BME280_temperature;BME280_humidity;BME280_pressure;Samples;Min_cycle;Max_cycle;Signal;HPM_P1;HPM_P2
2022/09/17 00:01:56;;;;;;;28.60;4.50;;;;;;;12.96;100.00;100440.38;4995979;28;20756;-74
2022/09/17 00:04:22;;;;;;;23.67;4.57;;;;;;;12.98;100.00;100445.56;4993152;28;20216;-74
2022/09/17 00:06:48;;;;;;;22.73;4.40;;;;;;;12.98;100.00;100446.38;4993014;28;20278;-74
2022/09/17 00:09:14;;;;;;;22.57;4.50;;;;;;;12.98;100.00;100448.97;4997149;28;20295;-75
2022/09/17 00:11:41;;;;;;;24.90;3.87;;;;;;;12.98;100.00;100442.97;4994942;28;20200;-75
2022/09/17 00:14:11;;;;;;;25.53;4.77;;;;;;;12.98;100.00;100455.84;4993023;28;20255;-75
2022/09/17 00:16:40;;;;;;;22.33;4.10;;;;;;;12.98;100.00;100450.69;4985695;28;20654;-75
2022/09/17 00:19:09;;;;;;;28.10;4.10;;;;;;;12.94;100.00;100450.63;4994073;28;20199;-74
2022/09/17 00:21:35;;;;;;;25.03;4.73;;;;;;;12.93;100.00;100452.34;4999357;28;20761;-74
2022/09/17 00:24:03;;;;;;;24.70;4.47;;;;;;;12.90;100.00;100453.19;4983660;28;20267;-75
2022/09/17 00:26:30;;;;;;;21.53;3.97;;;;;;;12.89;100.00;100456.59;4996749;28;20195;-76
2022/09/17 00:28:57;;;;;;;26.97;4.97;;;;;;;12.91;100.00;100458.31;4985822;28;20237;-74
2022/09/17 00:31:22;;;;;;;20.60;3.30;;;;;;;12.93;100.00;100453.19;4988354;28;20204;-75
2022/09/17 00:33:48;;;;;;;23.07;3.80;;;;;;;12.91;100.00;100457.47;4987084;28;20629;-74
2022/09/17 00:36:14;;;;;;;25.17;4.20;;;;;;;12.90;100.00;100458.34;4995400;28;20193;-75
2022/09/17 00:38:39;;;;;;;22.50;5.00;;;;;;;12.89;100.00;100459.16;4980034;28;20191;-76
2022/09/17 00:41:06;;;;;;;23.37;4.70;;;;;;;12.90;100.00;100453.19;4997083;28;20199;-76
2022/09/17 00:43:52;;;;;;;24.37;5.03;;;;;;;12.90;100.00;100458.34;4978469;28;20188;-76
2022/09/17 00:46:40;;;;;;;28.07;5.07;;;;;;;12.90;100.00;100460.91;4988578;28;20271;-75
2022/09/17 00:49:20;;;;;;;23.60;4.40;;;;;;;12.92;100.00;100469.47;4990640;28;20729;-75
2022/09/17 00:51:54;;;;;;;24.07;4.30;;;;;;;12.91;100.00;100460.88;4979404;28;20197;-76
2022/09/17 00:54:19;;;;;;;25.27;4.53;;;;;;;12.91;100.00;100463.47;4988494;28;20225;-75
2022/09/17 00:56:45;;;;;;;25.53;4.27;;;;;;;12.90;100.00;100469.47;4981899;28;20284;-76
2022/09/17 00:59:11;;;;;;;25.50;4.27;;;;;;;12.90;100.00;100466.91;4987072;28;20203;-75
2022/09/17 01:01:37;;;;;;;24.00;4.30;;;;;;;12.91;100.00;100478.03;4976917;28;20189;-78
2022/09/17 01:04:03;;;;;;;20.77;3.33;;;;;;;12.91;100.00;100467.75;4993203;28;20676;-75
2022/09/17 01:06:37;;;;;;;23.50;4.73;;;;;;;12.89;100.00;100466.88;4984618;28;20215;-75
2022/09/17 01:09:24;;;;;;;20.67;4.13;;;;;;;12.86;100.00;100472.03;4986430;28;20184;-76
2022/09/17 01:12:05;;;;;;;24.77;4.10;;;;;;;12.83;100.00;100475.44;4989161;28;20568;-75
2022/09/17 01:14:49;;;;;;;22.63;3.77;;;;;;;12.80;100.00;100471.97;4979196;28;20539;-76
2022/09/17 01:17:30;;;;;;;23.43;4.10;;;;;;;12.74;100.00;100475.41;4987151;28;20207;-75
2022/09/17 01:20:27;;;;;;;19.07;3.87;;;;;;;12.69;100.00;100479.66;4980394;28;20212;-76
2022/09/17 01:23:30;;;;;;;23.17;3.63;;;;;;;12.64;100.00;100473.66;4980438;28;20179;-76
2022/09/17 01:26:08;;;;;;;17.73;3.10;;;;;;;12.63;100.00;100477.03;4981557;28;20555;-75
2022/09/17 01:28:52;;;;;;;21.33;3.77;;;;;;;12.62;100.00;100472.75;4985389;28;20192;-75
2022/09/17 01:31:42;;;;;;;20.67;3.60;;;;;;;12.56;99.66;100483.00;4987862;28;20221;-75
2022/09/17 01:34:20;;;;;;;21.67;4.97;;;;;;;12.53;100.00;100479.56;4989553;28;20258;-75
2022/09/17 01:37:09;;;;;;;18.17;3.20;;;;;;;12.49;100.00;100478.69;4986566;28;20193;-75
2022/09/17 01:39:59;;;;;;;22.03;3.87;;;;;;;12.48;100.00;100486.38;4986351;28;20218;-76
2022/09/17 01:43:01;;;;;;;17.20;3.50;;;;;;;12.44;99.93;100477.78;4980103;28;20184;-75
2022/09/17 01:45:41;;;;;;;23.27;3.80;;;;;;;12.41;99.51;100485.50;4984201;28;20195;-75
2022/09/17 01:48:16;;;;;;;17.57;3.70;;;;;;;12.40;99.50;100481.19;4991960;28;20199;-75
2022/09/17 01:50:56;;;;;;;19.70;3.77;;;;;;;12.38;99.31;100485.47;4982927;28;20212;-75
2022/09/17 01:53:28;;;;;;;16.00;3.07;;;;;;;12.39;99.80;100487.19;4986141;28;20239;-76
2022/09/17 01:55:57;;;;;;;19.13;3.67;;;;;;;12.40;99.68;100483.75;4978796;28;20235;-75
2022/09/17 01:58:34;;;;;;;23.20;3.87;;;;;;;12.39;99.76;100492.31;4991615;28;20247;-76
2022/09/17 02:01:06;;;;;;;18.00;3.10;;;;;;;12.37;99.61;100493.16;4981035;28;20236;-77
2022/09/17 02:03:40;;;;;;;21.10;3.10;;;;;;;12.30;99.51;100494.81;4984310;28;20195;-76
2022/09/17 02:06:12;;;;;;;18.13;3.13;;;;;;;12.28;99.25;100505.94;5009057;28;20193;-75
2022/09/17 02:08:47;;;;;;;15.50;2.83;;;;;;;12.25;99.50;100499.06;4979996;28;20192;-75
2022/09/17 02:11:15;;;;;;;20.10;3.43;;;;;;;12.21;98.92;100499.91;4993640;28;20234;-75
2022/09/17 02:13:51;;;;;;;14.93;3.07;;;;;;;12.19;99.46;100498.16;4989023;28;20208;-76
2022/09/17 02:16:23;;;;;;;20.73;4.13;;;;;;;12.18;98.95;100506.72;4994382;28;20267;-76
2022/09/17 02:19:14;;;;;;;17.80;3.73;;;;;;;12.16;99.05;100506.72;4989547;28;20195;-75
2022/09/17 02:21:49;;;;;;;19.57;3.80;;;;;;;12.17;99.12;100498.16;4980866;28;20211;-75
2022/09/17 02:24:43;;;;;;;22.60;3.27;;;;;;;12.17;99.31;100499.88;4989650;28;20682;-75
2022/09/17 02:27:24;;;;;;;20.80;4.07;;;;;;;12.14;99.02;100504.97;4986549;28;20202;-75
2022/09/17 02:29:50;;;;;;;19.93;3.37;;;;;;;12.09;99.44;100499.81;4988142;28;20222;-75
2022/09/17 02:32:15;;;;;;;15.20;2.83;;;;;;;12.09;99.37;100498.94;4997317;28;20195;-75
2022/09/17 02:34:41;;;;;;;18.97;3.63;;;;;;;12.07;99.40;100498.09;5001888;28;20214;-76
2022/09/17 02:37:07;;;;;;;23.33;3.80;;;;;;;12.05;99.42;100498.09;4993619;28;20279;-76
2022/09/17 02:39:32;;;;;;;17.53;3.50;;;;;;;12.04;99.81;100501.50;4990102;28;20212;-76
2022/09/17 02:42:35;;;;;;;18.33;3.20;;;;;;;12.06;99.83;100504.06;4996859;28;20215;-76
2022/09/17 02:45:39;;;;;;;16.43;3.23;;;;;;;12.04;99.87;100505.75;5008624;28;20190;-76
2022/09/17 02:48:28;;;;;;;19.47;3.47;;;;;;;12.02;99.84;100503.19;4961223;28;20257;-76
2022/09/17 02:51:28;;;;;;;15.83;3.20;;;;;;;12.09;100.00;100504.09;4994656;28;20736;-76
2022/09/17 02:54:35;;;;;;;21.50;3.33;;;;;;;12.11;99.95;100504.94;4975178;28;20262;-76
2022/09/17 02:57:29;;;;;;;19.93;3.20;;;;;;;12.14;99.92;100500.72;4993041;28;20261;-75
2022/09/17 03:00:24;;;;;;;20.00;3.67;;;;;;;12.15;100.00;100499.88;5017396;28;20211;-75
2022/09/17 03:02:56;;;;;;;25.70;4.07;;;;;;;12.14;99.91;100504.97;4986467;28;20208;-76
2022/09/17 03:05:23;;;;;;;14.30;2.70;;;;;;;12.13;100.00;100500.69;4993451;28;20227;-75
2022/09/17 03:07:49;;;;;;;17.57;3.23;;;;;;;12.13;100.00;100500.69;4999484;28;20196;-76
2022/09/17 03:10:15;;;;;;;18.23;3.60;;;;;;;12.11;99.97;100503.25;4996578;28;20216;-76
2022/09/17 03:12:41;;;;;;;16.43;2.87;;;;;;;12.09;100.00;100499.81;4994463;28;20743;-76
2022/09/17 03:15:07;;;;;;;17.83;3.20;;;;;;;12.10;100.00;100498.09;5013826;28;20186;-75
2022/09/17 03:17:32;;;;;;;16.27;3.33;;;;;;;12.06;100.00;100493.78;4998420;28;20211;-76
2022/09/17 03:19:57;;;;;;;17.83;3.10;;;;;;;12.05;100.00;100492.94;4982032;28;20664;-76
2022/09/17 03:22:23;;;;;;;15.53;2.50;;;;;;;12.03;99.99;100496.34;4995494;28;20179;-76
2022/09/17 03:24:49;;;;;;;16.37;3.23;;;;;;;12.02;100.00;100505.75;4994099;28;20234;-76
2022/09/17 03:27:14;;;;;;;14.00;3.30;;;;;;;12.06;99.78;100511.75;4998304;28;20192;-75
2022/09/17 03:29:40;;;;;;;14.17;2.97;;;;;;;12.07;99.77;100506.63;4990341;28;20201;-75
2022/09/17 03:32:05;;;;;;;16.73;2.80;;;;;;;12.03;99.71;100504.03;5001072;28;20278;-75
2022/09/17 03:34:31;;;;;;;14.53;3.00;;;;;;;12.01;99.83;100509.16;4996779;28;20257;-75
2022/09/17 03:36:57;;;;;;;14.33;2.70;;;;;;;11.96;99.46;100498.00;4994303;28;20210;-75
2022/09/17 03:39:22;;;;;;;13.47;2.80;;;;;;;11.97;99.57;100515.13;4995386;28;20194;-75
2022/09/17 03:41:48;;;;;;;10.50;2.30;;;;;;;11.97;99.45;100504.84;4995417;28;20192;-75
2022/09/17 03:44:14;;;;;;;14.53;3.30;;;;;;;11.97;99.58;100504.84;5001764;28;20283;-75
2022/09/17 03:46:40;;;;;;;15.23;3.10;;;;;;;12.01;99.55;100511.72;4999821;28;20253;-75
2022/09/17 03:49:07;;;;;;;14.77;2.77;;;;;;;12.02;99.29;100513.44;5000648;28;20740;-75
2022/09/17 03:51:32;;;;;;;11.00;2.40;;;;;;;12.04;99.65;100518.59;4995726;28;20184;-76
2022/09/17 03:53:58;;;;;;;16.23;2.70;;;;;;;12.05;99.55;100515.16;5005057;28;20285;-76
2022/09/17 03:56:23;;;;;;;13.67;2.63;;;;;;;12.05;99.87;100512.59;4983160;28;20236;-75
2022/09/17 03:58:49;;;;;;;15.87;2.80;;;;;;;12.05;99.84;100515.16;4998463;28;20203;-76
2022/09/17 04:01:15;;;;;;;8.97;2.33;;;;;;;12.04;99.55;100518.59;4993602;28;20223;-75
2022/09/17 04:03:40;;;;;;;13.63;2.60;;;;;;;12.03;99.87;100524.56;5003354;28;20183;-76
2022/09/17 04:06:06;;;;;;;11.87;2.30;;;;;;;12.02;99.81;100525.41;4983218;28;20310;-75
2022/09/17 04:08:32;;;;;;;12.33;2.80;;;;;;;12.02;100.00;100515.13;5001491;28;20203;-76
2022/09/17 04:10:58;;;;;;;15.87;2.57;;;;;;;12.02;100.00;100515.13;4996734;28;20224;-75
2022/09/17 04:13:23;;;;;;;15.47;2.93;;;;;;;12.02;100.00;100515.13;4998892;28;20208;-76
2022/09/17 04:15:49;;;;;;;11.33;2.50;;;;;;;11.97;100.00;100515.13;4999891;28;20937;-75
2022/09/17 04:18:14;;;;;;;12.60;2.80;;;;;;;11.91;99.74;100517.63;4999412;28;20272;-75
2022/09/17 04:20:40;;;;;;;15.20;2.90;;;;;;;11.90;99.89;100523.59;5012004;28;20207;-76
2022/09/17 04:23:06;;;;;;;15.73;2.80;;;;;;;11.90;100.00;100533.00;4998180;28;20190;-75
2022/09/17 04:25:32;;;;;;;9.10;2.23;;;;;;;11.86;99.53;100532.13;4996260;28;20204;-75
2022/09/17 04:27:57;;;;;;;8.13;2.30;;;;;;;11.85;99.92;100540.66;4995420;28;20206;-76
2022/09/17 04:30:23;;;;;;;16.97;3.03;;;;;;;11.86;99.84;100544.09;5000428;28;20207;-75
2022/09/17 04:32:48;;;;;;;11.90;2.80;;;;;;;11.86;99.75;100541.53;4996077;28;20225;-76
2022/09/17 04:35:14;;;;;;;15.13;2.67;;;;;;;11.85;99.41;100550.06;4996879;28;20277;-76
2022/09/17 04:37:39;;;;;;;10.67;2.20;;;;;;;11.84;99.48;100540.66;4992302;28;20221;-77
2022/09/17 04:40:06;;;;;;;11.73;2.30;;;;;;;11.84;99.74;100541.50;5002442;28;20218;-76
2022/09/17 04:42:35;;;;;;;14.47;2.53;;;;;;;11.80;99.49;100551.75;4990085;28;20196;-76
2022/09/17 04:45:01;;;;;;;9.00;2.30;;;;;;;11.81;99.66;100553.44;4983235;28;20667;-76
2022/09/17 04:47:26;;;;;;;12.97;2.13;;;;;;;11.76;99.39;100549.97;4990135;28;20231;-76
2022/09/17 04:49:51;;;;;;;9.43;1.70;;;;;;;11.72;99.39;100554.22;4987421;28;20285;-76
2022/09/17 04:52:17;;;;;;;12.97;2.40;;;;;;;11.73;99.76;100549.94;5005963;28;20189;-76
2022/09/17 04:54:42;;;;;;;12.33;2.00;;;;;;;11.70;99.53;100543.06;4996743;28;20203;-76
2022/09/17 04:57:08;;;;;;;10.80;2.17;;;;;;;11.71;99.84;100547.34;4988034;28;20206;-76
2022/09/17 04:59:33;;;;;;;8.77;2.30;;;;;;;11.70;99.34;100555.91;4993827;28;20300;-76
2022/09/17 05:01:59;;;;;;;11.27;2.10;;;;;;;11.73;100.00;100565.34;4993795;28;20226;-76
2022/09/17 05:04:24;;;;;;;11.27;3.00;;;;;;;11.74;100.00;100562.78;4990387;28;20191;-76
2022/09/17 05:06:49;;;;;;;12.67;2.30;;;;;;;11.76;99.59;100578.19;4992820;28;20640;-76
2022/09/17 05:09:15;;;;;;;12.53;2.73;;;;;;;11.78;99.77;100579.94;4980354;28;20713;-75
2022/09/17 05:11:40;;;;;;;12.20;2.53;;;;;;;11.75;100.00;100584.19;4982802;28;20310;-74
2022/09/17 05:14:06;;;;;;;12.53;2.70;;;;;;;11.74;100.00;100572.19;4977932;28;20244;-75
2022/09/17 05:16:32;;;;;;;8.33;2.30;;;;;;;11.72;100.00;100571.31;4987558;28;20204;-77
2022/09/17 05:18:57;;;;;;;13.50;2.47;;;;;;;11.72;100.00;100568.75;4984933;28;20532;-74
2022/09/17 05:21:23;;;;;;;16.30;2.70;;;;;;;11.69;100.00;100566.13;4985994;28;20199;-74
2022/09/17 05:23:48;;;;;;;13.17;2.63;;;;;;;11.72;100.00;100572.19;4988219;28;20199;-76
2022/09/17 05:26:14;;;;;;;11.17;2.40;;;;;;;11.73;100.00;100579.03;4990625;28;20282;-76
2022/09/17 05:28:40;;;;;;;14.90;2.63;;;;;;;11.76;100.00;100576.47;4985119;28;20194;-75
2022/09/17 05:31:06;;;;;;;13.53;2.50;;;;;;;11.77;100.00;100579.91;4988772;28;20218;-75
2022/09/17 05:33:32;;;;;;;11.73;2.47;;;;;;;11.74;100.00;100572.19;4975426;28;20213;-76
2022/09/17 05:35:58;;;;;;;13.20;2.30;;;;;;;11.70;100.00;100576.41;4981605;28;20561;-76
2022/09/17 05:38:24;;;;;;;10.90;2.70;;;;;;;11.72;100.00;100569.63;4983217;28;20187;-75
2022/09/17 05:40:49;;;;;;;12.87;2.43;;;;;;;11.72;100.00;100573.88;4979911;28;20223;-76
2022/09/17 05:43:15;;;;;;;12.13;2.80;;;;;;;11.76;100.00;100571.34;4980054;28;20222;-75
2022/09/17 05:45:40;;;;;;;13.40;2.60;;;;;;;11.80;100.00;100579.97;4987309;28;20561;-76
2022/09/17 05:48:10;;;;;;;7.87;2.00;;;;;;;11.76;100.00;100579.03;4980368;28;20203;-75
2022/09/17 05:50:35;;;;;;;9.73;1.90;;;;;;;11.75;99.72;100579.91;4982625;28;20215;-75
2022/09/17 05:53:06;;;;;;;12.70;2.30;;;;;;;11.80;99.87;100591.06;4988054;28;20222;-75
2022/09/17 05:55:33;;;;;;;9.73;2.87;;;;;;;11.79;100.00;100580.78;4975213;28;20184;-76
2022/09/17 05:57:59;;;;;;;8.93;2.20;;;;;;;11.82;100.00;100584.25;4983591;28;20201;-76
2022/09/17 06:00:25;;;;;;;12.60;2.40;;;;;;;11.80;100.00;100582.53;4986401;28;20303;-75
2022/09/17 06:02:54;;;;;;;13.67;3.10;;;;;;;11.74;99.80;100579.88;4986457;28;20193;-76
2022/09/17 06:05:20;;;;;;;10.50;2.00;;;;;;;11.84;100.00;100587.69;4984301;28;20750;-75
2022/09/17 06:07:45;;;;;;;14.83;2.80;;;;;;;11.86;100.00;100595.41;4994292;28;20188;-75
2022/09/17 06:10:11;;;;;;;12.80;2.87;;;;;;;11.89;99.21;100593.72;4992754;28;20212;-76
2022/09/17 06:12:36;;;;;;;8.63;1.97;;;;;;;11.88;98.80;100599.69;4977686;28;20673;-75
2022/09/17 06:15:03;;;;;;;12.60;2.43;;;;;;;11.88;98.67;100594.56;4988180;28;20209;-76
2022/09/17 06:17:32;;;;;;;8.57;2.13;;;;;;;11.94;98.51;100599.75;4976611;28;20215;-75
2022/09/17 06:19:57;;;;;;;10.03;2.43;;;;;;;11.97;98.38;100601.47;4978851;28;20231;-76
2022/09/17 06:22:23;;;;;;;12.77;2.40;;;;;;;11.98;98.43;100604.06;4976520;28;20188;-74
2022/09/17 06:24:48;;;;;;;11.27;2.43;;;;;;;11.90;97.99;100607.41;4978568;28;20275;-75
2022/09/17 06:27:14;;;;;;;9.10;3.00;;;;;;;11.88;97.92;100612.53;4979374;28;20231;-75
2022/09/17 06:29:39;;;;;;;9.67;2.00;;;;;;;11.88;98.14;100611.66;4989409;28;20211;-74
2022/09/17 06:32:09;;;;;;;8.63;2.03;;;;;;;11.90;98.25;100610.81;4986146;28;20199;-75
2022/09/17 06:34:35;;;;;;;10.77;2.20;;;;;;;11.90;97.68;100612.56;4990339;28;20246;-74
2022/09/17 06:37:00;;;;;;;11.70;2.13;;;;;;;11.85;97.70;100619.34;4991281;28;20204;-74
2022/09/17 06:39:26;;;;;;;12.87;2.20;;;;;;;11.88;97.61;100603.97;4985613;28;20184;-75
2022/09/17 06:41:51;;;;;;;14.03;2.93;;;;;;;11.86;97.96;100611.66;4997071;28;20610;-74
2022/09/17 06:44:16;;;;;;;11.30;2.70;;;;;;;11.82;98.44;100607.34;4992955;28;20282;-75
2022/09/17 06:46:43;;;;;;;13.43;2.60;;;;;;;11.88;98.30;100616.78;4993727;28;20195;-74
2022/09/17 06:49:08;;;;;;;13.43;2.43;;;;;;;11.91;97.44;100620.28;4987363;28;20198;-75
2022/09/17 06:51:34;;;;;;;10.33;2.00;;;;;;;11.90;97.22;100613.38;4995926;28;20192;-75
2022/09/17 06:54:00;;;;;;;11.00;2.50;;;;;;;11.89;96.14;100605.72;4996696;28;20294;-75
2022/09/17 06:56:25;;;;;;;13.97;3.50;;;;;;;11.90;96.36;100609.97;4995221;28;20225;-75
2022/09/17 06:58:51;;;;;;;10.27;2.40;;;;;;;11.87;95.99;100612.50;4995175;28;20639;-75
2022/09/17 07:01:17;;;;;;;12.47;3.23;;;;;;;11.93;95.57;100620.28;4993018;28;20295;-74
2022/09/17 07:03:42;;;;;;;13.03;2.70;;;;;;;11.94;95.20;100620.28;4996751;28;20202;-75
2022/09/17 07:06:09;;;;;;;15.80;3.17;;;;;;;12.07;94.65;100627.25;4993868;28;20238;-75
2022/09/17 07:08:35;;;;;;;11.53;2.00;;;;;;;12.43;93.76;100619.91;4996779;28;20210;-75
2022/09/17 07:11:01;;;;;;;10.03;2.13;;;;;;;12.90;91.54;100627.97;4992846;28;20207;-75
2022/09/17 07:13:26;;;;;;;8.73;2.07;;;;;;;13.01;90.24;100628.91;5000592;28;20648;-75
2022/09/17 07:16:00;;;;;;;8.80;2.30;;;;;;;12.98;89.95;100623.72;4990725;28;20348;-74
2022/09/17 07:18:26;;;;;;;10.17;1.93;;;;;;;13.34;88.58;100613.66;4999194;28;20225;-75
2022/09/17 07:20:56;;;;;;;7.53;1.70;;;;;;;13.46;87.88;100612.84;4999536;28;20211;-74
2022/09/17 07:23:33;;;;;;;11.03;2.70;;;;;;;13.75;87.20;100604.38;4997723;28;20188;-75
2022/09/17 07:26:01;;;;;;;10.10;2.20;;;;;;;13.83;85.49;100610.41;5005240;28;20331;-74
2022/09/17 07:28:28;;;;;;;11.00;2.40;;;;;;;14.04;84.94;100609.59;4999313;28;20199;-74
2022/09/17 07:30:54;;;;;;;11.63;2.37;;;;;;;14.22;83.91;100595.03;5005806;28;20217;-74
2022/09/17 07:33:23;;;;;;;9.80;2.00;;;;;;;14.32;83.67;100608.78;5003364;28;20208;-74
2022/09/17 07:35:56;;;;;;;6.73;1.80;;;;;;;14.56;83.07;100608.78;5002228;28;20196;-75
2022/09/17 07:38:23;;;;;;;9.70;1.87;;;;;;;14.69;81.85;100607.91;5002845;28;20195;-75
2022/09/17 07:40:58;;;;;;;9.17;2.17;;;;;;;15.20;79.89;100615.53;4990986;28;20709;-75
2022/09/17 07:43:29;;;;;;;8.10;1.80;;;;;;;15.65;76.42;100620.56;4984251;28;20562;-75
2022/09/17 07:45:56;;;;;;;11.77;1.63;;;;;;;15.23;77.16;100625.84;4997729;28;20210;-75
2022/09/17 07:48:22;;;;;;;5.33;1.60;;;;;;;14.85;77.73;100628.50;4997100;28;20201;-74
2022/09/17 07:50:47;;;;;;;6.80;2.00;;;;;;;14.58;77.82;100631.13;4996502;28;20225;-74
2022/09/17 07:53:13;;;;;;;10.67;1.87;;;;;;;14.89;78.77;100643.13;4998327;28;20214;-74
2022/09/17 07:55:39;;;;;;;10.40;1.97;;;;;;;14.79;78.29;100632.81;4999435;28;20199;-75
2022/09/17 07:58:04;;;;;;;10.83;1.97;;;;;;;14.58;77.78;100631.13;5004486;28;20433;-76
2022/09/17 08:00:30;;;;;;;14.23;2.77;;;;;;;14.41;78.59;100627.66;4992340;28;20204;-75
2022/09/17 08:02:56;;;;;;;7.93;1.43;;;;;;;14.74;77.69;100624.22;5001367;28;20219;-75
2022/09/17 08:05:23;;;;;;;5.30;1.43;;;;;;;15.20;75.62;100621.53;4990827;28;20282;-75
2022/09/17 08:07:53;;;;;;;6.07;1.73;;;;;;;15.46;74.36;100618.91;4998833;28;20191;-75
2022/09/17 08:10:21;;;;;;;5.07;1.10;;;;;;;15.51;73.10;100614.63;4991342;28;20226;-76
2022/09/17 08:12:48;;;;;;;3.80;1.13;;;;;;;15.67;71.45;100616.25;4996444;28;20217;-75
2022/09/17 08:15:18;;;;;;;6.83;1.40;;;;;;;15.97;70.75;100605.75;5005191;28;20717;-76
2022/09/17 08:17:44;;;;;;;6.73;1.43;;;;;;;16.08;71.17;100598.78;4995062;28;20216;-75
2022/09/17 08:20:10;;;;;;;6.47;1.73;;;;;;;15.92;71.72;100612.66;4995734;28;20215;-76
2022/09/17 08:22:35;;;;;;;6.27;1.53;;;;;;;16.02;72.38;100617.75;4994490;28;20203;-75
2022/09/17 08:25:03;;;;;;;8.37;1.80;;;;;;;16.22;71.79;100604.72;4995846;28;20210;-76
2022/09/17 08:27:32;;;;;;;5.90;1.80;;;;;;;16.50;71.45;100608.81;4993201;28;20187;-75
2022/09/17 08:29:58;;;;;;;7.00;2.20;;;;;;;16.73;70.79;100605.19;4992761;28;20601;-75
2022/09/17 08:32:23;;;;;;;5.37;2.00;;;;;;;16.50;70.91;100608.81;4969956;28;20195;-76
2022/09/17 08:34:49;;;;;;;7.30;1.90;;;;;;;16.63;69.32;100598.34;4996958;28;20700;-75
2022/09/17 08:37:15;;;;;;;9.30;1.57;;;;;;;16.74;68.76;100603.44;4980723;28;20198;-76
2022/09/17 08:39:40;;;;;;;9.03;1.80;;;;;;;16.78;68.31;100598.22;4992476;28;20234;-76
2022/09/17 08:42:36;;;;;;;7.67;1.83;;;;;;;17.22;68.94;100605.53;4985164;28;20190;-76
2022/09/17 08:45:05;;;;;;;6.37;1.77;;;;;;;17.38;66.19;100602.75;4988215;28;20223;-76
2022/09/17 08:47:37;;;;;;;4.03;1.63;;;;;;;17.65;66.14;100609.34;4977036;28;20286;-77
2022/09/17 08:50:05;;;;;;;7.97;1.97;;;;;;;17.18;67.20;100596.91;4984443;28;20712;-77
2022/09/17 08:52:49;;;;;;;8.70;1.70;;;;;;;17.72;66.20;100598.88;4978726;28;20223;-77
2022/09/17 08:55:33;;;;;;;8.13;2.13;;;;;;;17.97;66.17;100589.03;4977212;28;20194;-77
2022/09/17 08:58:05;;;;;;;7.23;1.83;;;;;;;18.42;64.08;100586.59;4992056;28;20328;-75
2022/09/17 09:00:59;;;;;;;5.70;1.63;;;;;;;17.95;63.19;100586.44;4981061;28;20212;-74
2022/09/17 09:03:50;;;;;;;6.97;1.50;;;;;;;17.88;64.15;100594.34;4980020;28;20200;-74
2022/09/17 09:06:20;;;;;;;4.20;1.40;;;;;;;18.36;62.13;100584.09;4992704;28;20186;-74
2022/09/17 09:09:03;;;;;;;10.30;1.80;;;;;;;18.69;60.84;100577.47;4982553;28;20180;-76
2022/09/17 09:11:30;;;;;;;8.02;1.73;;;;;;;18.71;58.58;100565.34;4971157;28;20263;-77
2022/09/17 09:14:20;;;;;;;3.15;1.30;;;;;;;19.94;55.05;100562.81;4983740;28;20220;-78
2022/09/17 09:16:48;;;;;;;4.93;1.05;;;;;;;19.20;53.96;100561.78;4993616;28;20188;-75
2022/09/17 09:19:21;;;;;;;2.90;1.10;;;;;;;21.09;51.72;100559.00;4977862;28;20191;-75
2022/09/17 09:22:25;;;;;;;4.78;1.58;;;;;;;23.75;42.84;100548.25;4977306;28;20220;-75
2022/09/17 09:25:12;;;;;;;7.95;1.50;;;;;;;25.24;39.41;100537.53;4963140;28;20212;-76
2022/09/17 09:27:52;;;;;;;4.88;1.27;;;;;;;21.42;47.10;100552.84;4988904;28;20187;-76
2022/09/17 09:30:22;;;;;;;7.30;1.60;;;;;;;23.66;44.23;100538.16;4981400;28;20251;-76
2022/09/17 09:32:56;;;;;;;5.50;1.52;;;;;;;24.90;39.75;100534.72;4975696;28;20216;-76
2022/09/17 09:35:26;;;;;;;4.72;1.20;;;;;;;24.28;41.59;100536.53;4977450;28;20188;-75
2022/09/17 09:38:01;;;;;;;3.88;1.35;;;;;;;24.45;41.85;100533.22;4985749;28;20207;-77
2022/09/17 09:40:50;;;;;;;3.88;1.50;;;;;;;22.69;43.50;100549.63;4984123;28;20219;-76
2022/09/17 09:43:22;;;;;;;3.90;1.27;;;;;;;19.56;53.63;100570.56;4981951;28;20188;-76
2022/09/17 09:46:13;;;;;;;6.17;1.37;;;;;;;18.52;60.12;100585.53;4979469;28;20279;-76
2022/09/17 09:49:11;;;;;;;1.60;0.80;;;;;;;21.47;49.17;100567.41;4978390;28;20580;-76
2022/09/17 09:52:01;;;;;;;3.22;1.10;;;;;;;26.29;40.01;100537.75;4972212;28;20191;-75
2022/09/17 09:54:51;;;;;;;2.45;0.98;;;;;;;25.88;39.29;100538.06;4984270;28;20627;-74
2022/09/17 09:57:30;;;;;;;2.35;0.77;;;;;;;27.22;37.05;100532.91;4988267;28;20211;-75
2022/09/17 10:00:27;;;;;;;4.70;1.30;;;;;;;23.83;42.87;100555.81;4979259;28;20248;-76
2022/09/17 10:03:25;;;;;;;2.03;1.00;;;;;;;23.61;42.00;100562.81;4979483;28;20266;-76
2022/09/17 10:06:00;;;;;;;1.63;0.90;;;;;;;26.27;37.79;100549.25;4982619;28;20199;-76
2022/09/17 10:08:29;;;;;;;3.90;1.13;;;;;;;24.56;39.57;100552.81;4994411;28;20248;-75
2022/09/17 10:11:19;;;;;;;1.13;0.73;;;;;;;22.09;43.90;100570.75;4975508;28;20751;-75
2022/09/17 10:13:44;;;;;;;2.58;1.00;;;;;;;26.30;35.19;100544.69;4988722;28;20646;-75
2022/09/17 10:16:23;;;;;;;1.38;0.60;;;;;;;25.08;37.33;100554.03;4988005;28;20262;-78
2022/09/17 10:18:50;;;;;;;1.30;0.60;;;;;;;26.29;34.59;100561.38;4997387;28;20191;-75
2022/09/17 10:21:38;;;;;;;0.93;0.50;;;;;;;21.98;41.87;100573.69;4985940;28;20204;-74
2022/09/17 10:24:22;;;;;;;1.35;0.63;;;;;;;20.60;44.69;100574.19;4997724;28;20187;-75
2022/09/17 10:26:48;;;;;;;1.50;0.83;;;;;;;19.30;48.23;100583.28;4991862;28;20219;-75
2022/09/17 10:29:18;;;;;;;1.63;0.70;;;;;;;18.89;49.47;100589.19;4990312;28;20241;-76
2022/09/17 10:31:49;;;;;;;2.87;0.80;;;;;;;18.69;50.41;100588.72;4997240;28;20198;-76
2022/09/17 10:34:24;;;;;;;2.33;0.70;;;;;;;18.20;52.28;100582.59;4993573;28;20246;-76
2022/09/17 10:36:50;;;;;;;2.67;0.50;;;;;;;18.15;52.94;100587.00;4995651;28;20660;-76
2022/09/17 10:39:25;;;;;;;3.13;0.80;;;;;;;18.33;53.24;100580.72;4992349;28;20187;-77
2022/09/17 10:41:57;;;;;;;1.70;0.50;;;;;;;18.15;53.81;100574.03;4995152;28;20274;-76
2022/09/17 10:44:25;;;;;;;4.23;0.80;;;;;;;18.56;52.91;100582.03;4995989;28;20199;-76
2022/09/17 10:46:51;;;;;;;3.87;0.70;;;;;;;18.13;55.21;100578.41;4995215;28;20195;-76
2022/09/17 10:49:23;;;;;;;2.93;0.67;;;;;;;20.58;49.02;100571.63;4995082;28;20196;-75
2022/09/17 10:51:48;;;;;;;2.13;0.60;;;;;;;18.79;53.21;100585.06;4986001;28;20275;-75
2022/09/17 10:54:16;;;;;;;2.90;0.73;;;;;;;18.60;54.49;100577.66;4985822;28;20326;-74
2022/09/17 10:56:50;;;;;;;2.07;0.80;;;;;;;18.60;53.44;100586.28;4999102;28;20728;-75
2022/09/17 10:59:30;;;;;;;1.93;0.80;;;;;;;20.78;47.44;100566.75;5001633;28;20229;-77
2022/09/17 11:02:33;;;;;;;4.90;1.23;;;;;;;20.48;47.57;100582.28;5001283;28;20202;-75
2022/09/17 11:05:22;;;;;;;4.80;1.45;;;;;;;25.18;39.94;100553.56;4994260;28;20255;-76
2022/09/17 11:07:58;;;;;;;3.70;1.38;;;;;;;21.23;45.81;100565.53;5002368;28;20270;-74
2022/09/17 11:10:28;;;;;;;2.08;0.85;;;;;;;23.36;41.33;100547.19;5003580;28;20225;-75
2022/09/17 11:13:00;;;;;;;2.50;0.73;;;;;;;20.11;47.47;100561.53;4993299;28;20239;-75
2022/09/17 11:15:42;;;;;;;1.93;0.60;;;;;;;20.83;47.80;100554.44;5004517;28;20192;-76
2022/09/17 11:18:08;;;;;;;2.08;0.93;;;;;;;21.22;47.65;100549.94;4997949;28;20188;-76
2022/09/17 11:21:01;;;;;;;2.83;1.05;;;;;;;19.19;51.62;100565.25;5004439;28;20555;-75
2022/09/17 11:23:32;;;;;;;2.73;0.97;;;;;;;18.21;54.08;100568.78;4989973;28;20636;-75
2022/09/17 11:26:03;;;;;;;2.53;0.83;;;;;;;18.45;55.12;100572.72;4999110;28;20211;-76
2022/09/17 11:28:53;;;;;;;4.20;0.90;;;;;;;17.44;58.55;100579.38;4996344;28;20199;-76
2022/09/17 11:31:28;;;;;;;4.57;1.23;;;;;;;17.33;59.17;100567.41;4994908;28;20685;-76
2022/09/17 11:34:26;;;;;;;3.33;0.90;;;;;;;18.29;56.72;100569.47;4997416;28;20226;-76
2022/09/17 11:37:09;;;;;;;3.93;1.03;;;;;;;18.03;56.50;100566.47;4987238;28;20202;-74
2022/09/17 11:39:46;;;;;;;2.97;0.77;;;;;;;17.10;60.42;100569.41;5000520;28;20215;-75
2022/09/17 11:42:18;;;;;;;3.47;0.90;;;;;;;16.75;62.99;100562.03;4998467;28;20204;-73